sensor_id;sensor_type;location;lat;lon;timestamp;temperature;humidity
39983;DHT22;25670;44.782;10.356;2023-11-22T00:01:59;8.70;99.90
39983;DHT22;25670;44.782;10.356;2023-11-22T00:04:25;8.70;99.90
39983;DHT22;25670;44.782;10.356;2023-11-22T00:06:51;8.60;99.90
39983;DHT22;25670;44.782;10.356;2023-11-22T00:09:17;8.60;99.90
39983;DHT22;25670;44.782;10.356;2023-11-22T00:11:48;8.60;99.90
39983;DHT22;25670;44.782;10.356;2023-11-22T00:14:15;8.60;99.90
39983;DHT22;25670;44.782;10.356;2023-11-22T00:16:41;8.60;99.90
39983;DHT22;25670;44.782;10.356;2023-11-22T00:19:08;8.50;99.90
39983;DHT22;25670;44.782;10.356;2023-11-22T00:21:35;8.50;99.90
39983;DHT22;25670;44.782;10.356;2023-11-22T00:24:01;8.40;99.90
39983;DHT22;25670;44.782;10.356;2023-11-22T00:26:27;8.40;99.90
39983;DHT22;25670;44.782;10.356;2023-11-22T00:28:57;8.40;99.90
39983;DHT22;25670;44.782;10.356;2023-11-22T00:31:23;8.40;99.90
39983;DHT22;25670;44.782;10.356;2023-11-22T00:33:50;8.30;99.90
39983;DHT22;25670;44.782;10.356;2023-11-22T00:36:16;8.30;99.90
39983;DHT22;25670;44.782;10.356;2023-11-22T00:38:42;8.20;99.90
39983;DHT22;25670;44.782;10.356;2023-11-22T00:41:09;8.10;99.90
39983;DHT22;25670;44.782;10.356;2023-11-22T00:43:36;8.10;99.90
39983;DHT22;25670;44.782;10.356;2023-11-22T00:46:03;8.00;99.90
39983;DHT22;25670;44.782;10.356;2023-11-22T00:48:29;8.10;99.90
39983;DHT22;25670;44.782;10.356;2023-11-22T00:50:55;8.60;99.90
39983;DHT22;25670;44.782;10.356;2023-11-22T00:53:21;8.00;99.90
39983;DHT22;25670;44.782;10.356;2023-11-22T00:55:49;8.00;99.90
39983;DHT22;25670;44.782;10.356;2023-11-22T00:58:15;8.60;99.90
39983;DHT22;25670;44.782;10.356;2023-11-22T01:00:41;7.90;99.90
39983;DHT22;25670;44.782;10.356;2023-11-22T01:03:08;7.90;99.90
39983;DHT22;25670;44.782;10.356;2023-11-22T01:05:37;7.80;99.90
39983;DHT22;25670;44.782;10.356;2023-11-22T01:08:04;7.80;99.90
39983;DHT22;25670;44.782;10.356;2023-11-22T01:10:30;7.70;99.90
39983;DHT22;25670;44.782;10.356;2023-11-22T01:12:57;7.70;99.90
39983;DHT22;25670;44.782;10.356;2023-11-22T01:15:23;7.70;99.90
39983;DHT22;25670;44.782;10.356;2023-11-22T01:17:50;7.70;99.90
39983;DHT22;25670;44.782;10.356;2023-11-22T01:20:16;7.70;99.90
39983;DHT22;25670;44.782;10.356;2023-11-22T01:22:43;7.70;99.90
39983;DHT22;25670;44.782;10.356;2023-11-22T01:25:09;7.60;99.90
39983;DHT22;25670;44.782;10.356;2023-11-22T01:27:35;7.60;99.90
39983;DHT22;25670;44.782;10.356;2023-11-22T01:30:02;8.00;99.90
39983;DHT22;25670;44.782;10.356;2023-11-22T01:32:29;7.60;99.90
39983;DHT22;25670;44.782;10.356;2023-11-22T01:34:55;7.60;99.90
39983;DHT22;25670;44.782;10.356;2023-11-22T01:37:23;8.10;99.90
39983;DHT22;25670;44.782;10.356;2023-11-22T01:39:50;7.50;99.90
39983;DHT22;25670;44.782;10.356;2023-11-22T01:42:16;7.40;99.90
39983;DHT22;25670;44.782;10.356;2023-11-22T01:44:42;7.40;99.90
39983;DHT22;25670;44.782;10.356;2023-11-22T01:47:08;7.40;99.90
39983;DHT22;25670;44.782;10.356;2023-11-22T01:49:35;8.60;99.90
39983;DHT22;25670;44.782;10.356;2023-11-22T01:52:02;7.50;99.90
39983;DHT22;25670;44.782;10.356;2023-11-22T01:54:30;7.50;99.90
39983;DHT22;25670;44.782;10.356;2023-11-22T01:56:57;7.60;99.90
39983;DHT22;25670;44.782;10.356;2023-11-22T01:59:25;8.00;99.90
39983;DHT22;25670;44.782;10.356;2023-11-22T02:01:53;8.00;99.90
39983;DHT22;25670;44.782;10.356;2023-11-22T02:04:20;7.80;99.90
39983;DHT22;25670;44.782;10.356;2023-11-22T02:06:47;7.70;99.90
39983;DHT22;25670;44.782;10.356;2023-11-22T02:09:13;7.70;99.90
39983;DHT22;25670;44.782;10.356;2023-11-22T02:11:41;7.60;99.90
39983;DHT22;25670;44.782;10.356;2023-11-22T02:14:08;7.60;99.90
39983;DHT22;25670;44.782;10.356;2023-11-22T02:16:35;7.80;99.90
39983;DHT22;25670;44.782;10.356;2023-11-22T02:19:04;7.60;99.90
39983;DHT22;25670;44.782;10.356;2023-11-22T02:21:33;7.50;99.90
39983;DHT22;25670;44.782;10.356;2023-11-22T02:23:59;7.50;99.90
39983;DHT22;25670;44.782;10.356;2023-11-22T02:26:25;7.50;99.90
39983;DHT22;25670;44.782;10.356;2023-11-22T02:28:52;7.50;99.90
39983;DHT22;25670;44.782;10.356;2023-11-22T02:31:19;7.40;99.90
39983;DHT22;25670;44.782;10.356;2023-11-22T02:33:45;7.40;99.90
39983;DHT22;25670;44.782;10.356;2023-11-22T02:36:11;7.40;99.90
39983;DHT22;25670;44.782;10.356;2023-11-22T02:38:40;7.40;99.90
39983;DHT22;25670;44.782;10.356;2023-11-22T02:41:06;7.30;99.90
39983;DHT22;25670;44.782;10.356;2023-11-22T02:43:33;7.50;99.90
39983;DHT22;25670;44.782;10.356;2023-11-22T02:46:00;7.30;99.90
39983;DHT22;25670;44.782;10.356;2023-11-22T02:48:26;7.20;99.90
39983;DHT22;25670;44.782;10.356;2023-11-22T02:50:52;7.20;99.90
39983;DHT22;25670;44.782;10.356;2023-11-22T02:53:20;7.20;99.90
39983;DHT22;25670;44.782;10.356;2023-11-22T02:55:46;7.20;99.90
39983;DHT22;25670;44.782;10.356;2023-11-22T02:58:12;7.20;99.90
39983;DHT22;25670;44.782;10.356;2023-11-22T03:00:41;7.20;99.90
39983;DHT22;25670;44.782;10.356;2023-11-22T03:03:07;7.10;99.90
39983;DHT22;25670;44.782;10.356;2023-11-22T03:05:37;7.60;99.90
39983;DHT22;25670;44.782;10.356;2023-11-22T03:08:03;7.00;99.90
39983;DHT22;25670;44.782;10.356;2023-11-22T03:10:30;6.90;99.90
39983;DHT22;25670;44.782;10.356;2023-11-22T03:12:56;6.90;99.90
39983;DHT22;25670;44.782;10.356;2023-11-22T03:15:22;6.90;99.90
39983;DHT22;25670;44.782;10.356;2023-11-22T03:17:48;6.90;99.90
39983;DHT22;25670;44.782;10.356;2023-11-22T03:20:15;7.50;99.90
39983;DHT22;25670;44.782;10.356;2023-11-22T03:22:42;6.90;99.90
39983;DHT22;25670;44.782;10.356;2023-11-22T03:25:10;6.90;99.90
39983;DHT22;25670;44.782;10.356;2023-11-22T03:27:37;6.90;99.90
39983;DHT22;25670;44.782;10.356;2023-11-22T03:30:04;6.80;99.90
39983;DHT22;25670;44.782;10.356;2023-11-22T03:32:31;6.90;99.90
39983;DHT22;25670;44.782;10.356;2023-11-22T03:34:57;6.90;99.90
39983;DHT22;25670;44.782;10.356;2023-11-22T03:37:23;7.40;99.90
39983;DHT22;25670;44.782;10.356;2023-11-22T03:39:50;7.10;99.90
39983;DHT22;25670;44.782;10.356;2023-11-22T03:42:16;6.90;99.90
39983;DHT22;25670;44.782;10.356;2023-11-22T03:44:45;7.50;99.90
39983;DHT22;25670;44.782;10.356;2023-11-22T03:47:11;6.90;99.90
39983;DHT22;25670;44.782;10.356;2023-11-22T03:49:41;6.90;99.90
39983;DHT22;25670;44.782;10.356;2023-11-22T03:52:10;6.90;99.90
39983;DHT22;25670;44.782;10.356;2023-11-22T03:54:37;6.80;99.90
39983;DHT22;25670;44.782;10.356;2023-11-22T03:57:03;6.80;99.90
39983;DHT22;25670;44.782;10.356;2023-11-22T03:59:30;6.70;99.90
39983;DHT22;25670;44.782;10.356;2023-11-22T04:01:56;7.70;99.90
39983;DHT22;25670;44.782;10.356;2023-11-22T04:04:23;6.60;99.90
39983;DHT22;25670;44.782;10.356;2023-11-22T04:06:49;6.60;99.90
39983;DHT22;25670;44.782;10.356;2023-11-22T04:09:16;6.70;99.90
39983;DHT22;25670;44.782;10.356;2023-11-22T04:11:46;7.40;99.90
39983;DHT22;25670;44.782;10.356;2023-11-22T04:14:13;6.80;99.90
39983;DHT22;25670;44.782;10.356;2023-11-22T04:16:39;6.90;99.90
39983;DHT22;25670;44.782;10.356;2023-11-22T04:19:05;6.80;99.90
39983;DHT22;25670;44.782;10.356;2023-11-22T04:21:31;7.70;99.90
39983;DHT22;25670;44.782;10.356;2023-11-22T04:23:58;7.90;99.90
39983;DHT22;25670;44.782;10.356;2023-11-22T04:26:24;6.70;99.90
39983;DHT22;25670;44.782;10.356;2023-11-22T04:28:50;6.70;99.90
39983;DHT22;25670;44.782;10.356;2023-11-22T04:31:16;6.90;99.90
39983;DHT22;25670;44.782;10.356;2023-11-22T04:33:43;6.80;99.90
39983;DHT22;25670;44.782;10.356;2023-11-22T04:36:09;6.80;99.90
39983;DHT22;25670;44.782;10.356;2023-11-22T04:38:35;7.30;99.90
39983;DHT22;25670;44.782;10.356;2023-11-22T04:41:02;6.30;99.90
39983;DHT22;25670;44.782;10.356;2023-11-22T04:43:28;6.30;99.90
39983;DHT22;25670;44.782;10.356;2023-11-22T04:45:54;7.30;99.90
39983;DHT22;25670;44.782;10.356;2023-11-22T04:48:20;6.20;99.90
39983;DHT22;25670;44.782;10.356;2023-11-22T04:50:47;6.20;99.90
39983;DHT22;25670;44.782;10.356;2023-11-22T04:53:13;6.60;99.90
39983;DHT22;25670;44.782;10.356;2023-11-22T04:55:39;6.20;99.90
39983;DHT22;25670;44.782;10.356;2023-11-22T04:58:06;6.10;99.90
39983;DHT22;25670;44.782;10.356;2023-11-22T05:00:32;6.20;99.90
39983;DHT22;25670;44.782;10.356;2023-11-22T05:02:58;7.10;99.90
39983;DHT22;25670;44.782;10.356;2023-11-22T05:05:24;6.10;99.90
39983;DHT22;25670;44.782;10.356;2023-11-22T05:07:51;6.90;99.90
39983;DHT22;25670;44.782;10.356;2023-11-22T05:10:18;6.50;99.90
39983;DHT22;25670;44.782;10.356;2023-11-22T05:12:44;6.10;99.90
39983;DHT22;25670;44.782;10.356;2023-11-22T05:15:10;6.00;99.90
39983;DHT22;25670;44.782;10.356;2023-11-22T05:17:37;7.60;99.90
39983;DHT22;25670;44.782;10.356;2023-11-22T05:20:04;5.80;99.90
39983;DHT22;25670;44.782;10.356;2023-11-22T05:22:34;5.70;99.90
39983;DHT22;25670;44.782;10.356;2023-11-22T05:25:01;5.70;99.90
39983;DHT22;25670;44.782;10.356;2023-11-22T05:27:27;5.70;99.90
39983;DHT22;25670;44.782;10.356;2023-11-22T05:29:54;5.80;99.90
39983;DHT22;25670;44.782;10.356;2023-11-22T05:32:20;5.90;99.90
39983;DHT22;25670;44.782;10.356;2023-11-22T05:34:46;5.90;99.90
39983;DHT22;25670;44.782;10.356;2023-11-22T05:37:13;5.90;99.90
39983;DHT22;25670;44.782;10.356;2023-11-22T05:39:39;5.80;99.90
39983;DHT22;25670;44.782;10.356;2023-11-22T05:42:06;5.90;99.90
39983;DHT22;25670;44.782;10.356;2023-11-22T05:44:32;5.90;99.90
39983;DHT22;25670;44.782;10.356;2023-11-22T05:46:59;5.90;99.90
39983;DHT22;25670;44.782;10.356;2023-11-22T05:49:25;6.00;99.90
39983;DHT22;25670;44.782;10.356;2023-11-22T05:51:51;6.00;99.90
39983;DHT22;25670;44.782;10.356;2023-11-22T05:54:17;6.00;99.90
39983;DHT22;25670;44.782;10.356;2023-11-22T05:56:43;6.00;99.90
39983;DHT22;25670;44.782;10.356;2023-11-22T05:59:10;6.00;99.90
39983;DHT22;25670;44.782;10.356;2023-11-22T06:01:36;6.00;99.90
39983;DHT22;25670;44.782;10.356;2023-11-22T06:04:02;6.00;99.90
39983;DHT22;25670;44.782;10.356;2023-11-22T06:06:29;5.90;99.90
39983;DHT22;25670;44.782;10.356;2023-11-22T06:08:55;5.70;99.90
39983;DHT22;25670;44.782;10.356;2023-11-22T06:11:21;5.60;99.90
39983;DHT22;25670;44.782;10.356;2023-11-22T06:13:47;5.70;99.90
39983;DHT22;25670;44.782;10.356;2023-11-22T06:16:13;5.90;99.90
39983;DHT22;25670;44.782;10.356;2023-11-22T06:18:40;6.00;99.90
39983;DHT22;25670;44.782;10.356;2023-11-22T06:21:09;6.00;99.90
39983;DHT22;25670;44.782;10.356;2023-11-22T06:23:36;6.10;99.90
39983;DHT22;25670;44.782;10.356;2023-11-22T06:26:02;6.20;99.90
39983;DHT22;25670;44.782;10.356;2023-11-22T06:28:28;5.90;99.90
39983;DHT22;25670;44.782;10.356;2023-11-22T06:30:55;6.00;99.90
39983;DHT22;25670;44.782;10.356;2023-11-22T06:33:21;5.70;99.90
39983;DHT22;25670;44.782;10.356;2023-11-22T06:35:47;5.70;99.90
39983;DHT22;25670;44.782;10.356;2023-11-22T06:38:13;5.90;99.90
39983;DHT22;25670;44.782;10.356;2023-11-22T06:40:39;5.80;99.90
39983;DHT22;25670;44.782;10.356;2023-11-22T06:43:06;6.10;99.90
39983;DHT22;25670;44.782;10.356;2023-11-22T06:45:32;5.90;99.90
39983;DHT22;25670;44.782;10.356;2023-11-22T06:47:58;5.70;99.90
39983;DHT22;25670;44.782;10.356;2023-11-22T06:50:25;5.70;99.90
39983;DHT22;25670;44.782;10.356;2023-11-22T06:52:51;5.70;99.90
39983;DHT22;25670;44.782;10.356;2023-11-22T06:55:19;5.70;99.90
39983;DHT22;25670;44.782;10.356;2023-11-22T06:57:45;5.80;99.90
39983;DHT22;25670;44.782;10.356;2023-11-22T07:00:12;5.90;99.90
39983;DHT22;25670;44.782;10.356;2023-11-22T07:02:42;6.00;99.90
39983;DHT22;25670;44.782;10.356;2023-11-22T07:05:08;6.00;99.90
39983;DHT22;25670;44.782;10.356;2023-11-22T07:07:35;6.00;99.90
39983;DHT22;25670;44.782;10.356;2023-11-22T07:10:02;6.00;99.90
39983;DHT22;25670;44.782;10.356;2023-11-22T07:12:28;6.10;99.90
39983;DHT22;25670;44.782;10.356;2023-11-22T07:14:55;6.10;99.90
39983;DHT22;25670;44.782;10.356;2023-11-22T07:17:21;6.20;99.90
39983;DHT22;25670;44.782;10.356;2023-11-22T07:19:48;6.20;99.90
39983;DHT22;25670;44.782;10.356;2023-11-22T07:22:15;6.20;99.90
39983;DHT22;25670;44.782;10.356;2023-11-22T07:24:46;6.50;99.90
39983;DHT22;25670;44.782;10.356;2023-11-22T07:27:19;6.40;99.90
39983;DHT22;25670;44.782;10.356;2023-11-22T07:29:46;6.40;99.90
39983;DHT22;25670;44.782;10.356;2023-11-22T07:32:12;6.40;99.90
39983;DHT22;25670;44.782;10.356;2023-11-22T07:34:40;6.70;99.90
39983;DHT22;25670;44.782;10.356;2023-11-22T07:37:07;6.60;99.90
39983;DHT22;25670;44.782;10.356;2023-11-22T07:39:34;6.50;99.90
39983;DHT22;25670;44.782;10.356;2023-11-22T07:42:02;6.50;99.90
39983;DHT22;25670;44.782;10.356;2023-11-22T07:44:29;6.50;99.90
39983;DHT22;25670;44.782;10.356;2023-11-22T07:46:59;6.50;99.90
39983;DHT22;25670;44.782;10.356;2023-11-22T07:49:26;6.70;99.90
39983;DHT22;25670;44.782;10.356;2023-11-22T07:51:52;6.40;99.90
39983;DHT22;25670;44.782;10.356;2023-11-22T07:54:22;6.40;99.90
39983;DHT22;25670;44.782;10.356;2023-11-22T07:56:49;6.40;99.90
39983;DHT22;25670;44.782;10.356;2023-11-22T07:59:15;6.40;99.90
39983;DHT22;25670;44.782;10.356;2023-11-22T08:01:46;6.50;99.90
39983;DHT22;25670;44.782;10.356;2023-11-22T08:04:15;6.70;99.90
39983;DHT22;25670;44.782;10.356;2023-11-22T08:06:44;6.60;99.90
39983;DHT22;25670;44.782;10.356;2023-11-22T08:09:10;6.70;99.90
39983;DHT22;25670;44.782;10.356;2023-11-22T08:11:36;6.80;99.90
39983;DHT22;25670;44.782;10.356;2023-11-22T08:14:03;6.80;99.90
39983;DHT22;25670;44.782;10.356;2023-11-22T08:16:30;6.50;99.90
39983;DHT22;25670;44.782;10.356;2023-11-22T08:18:56;7.00;99.90
39983;DHT22;25670;44.782;10.356;2023-11-22T08:21:23;7.60;99.90
39983;DHT22;25670;44.782;10.356;2023-11-22T08:23:49;7.20;99.90
39983;DHT22;25670;44.782;10.356;2023-11-22T08:26:16;7.30;99.90
39983;DHT22;25670;44.782;10.356;2023-11-22T08:28:42;7.40;99.90
39983;DHT22;25670;44.782;10.356;2023-11-22T08:31:08;7.50;99.90
39983;DHT22;25670;44.782;10.356;2023-11-22T08:33:38;7.70;99.90
39983;DHT22;25670;44.782;10.356;2023-11-22T08:36:07;7.90;99.90
39983;DHT22;25670;44.782;10.356;2023-11-22T08:38:38;8.00;99.90
39983;DHT22;25670;44.782;10.356;2023-11-22T08:41:08;8.10;99.90
39983;DHT22;25670;44.782;10.356;2023-11-22T08:43:39;8.20;99.90
39983;DHT22;25670;44.782;10.356;2023-11-22T08:46:06;8.40;99.90
39983;DHT22;25670;44.782;10.356;2023-11-22T08:48:33;8.40;99.90
39983;DHT22;25670;44.782;10.356;2023-11-22T08:51:00;8.60;99.90
39983;DHT22;25670;44.782;10.356;2023-11-22T08:53:26;8.80;99.90
39983;DHT22;25670;44.782;10.356;2023-11-22T08:55:53;9.00;99.90
39983;DHT22;25670;44.782;10.356;2023-11-22T08:58:23;9.10;99.90
39983;DHT22;25670;44.782;10.356;2023-11-22T09:00:49;9.30;99.90
39983;DHT22;25670;44.782;10.356;2023-11-22T09:03:15;9.30;99.90
39983;DHT22;25670;44.782;10.356;2023-11-22T09:05:43;9.40;99.90
39983;DHT22;25670;44.782;10.356;2023-11-22T09:08:09;9.50;99.90
39983;DHT22;25670;44.782;10.356;2023-11-22T09:10:39;9.60;99.90
39983;DHT22;25670;44.782;10.356;2023-11-22T09:13:06;9.60;99.90
39983;DHT22;25670;44.782;10.356;2023-11-22T09:15:32;9.70;99.90
39983;DHT22;25670;44.782;10.356;2023-11-22T09:17:59;9.80;99.90
39983;DHT22;25670;44.782;10.356;2023-11-22T09:20:26;9.90;99.90
39983;DHT22;25670;44.782;10.356;2023-11-22T09:22:53;10.00;99.90
39983;DHT22;25670;44.782;10.356;2023-11-22T09:25:22;10.00;99.90
39983;DHT22;25670;44.782;10.356;2023-11-22T09:27:50;10.10;99.90
39983;DHT22;25670;44.782;10.356;2023-11-22T09:30:27;10.10;99.90
39983;DHT22;25670;44.782;10.356;2023-11-22T09:35:27;10.20;99.90
39983;DHT22;25670;44.782;10.356;2023-11-22T09:37:55;10.30;99.90
39983;DHT22;25670;44.782;10.356;2023-11-22T09:40:22;10.30;99.90
39983;DHT22;25670;44.782;10.356;2023-11-22T09:42:49;10.30;99.90
39983;DHT22;25670;44.782;10.356;2023-11-22T09:45:20;10.30;99.90
39983;DHT22;25670;44.782;10.356;2023-11-22T09:47:47;10.40;99.90
39983;DHT22;25670;44.782;10.356;2023-11-22T09:50:35;10.40;99.90
39983;DHT22;25670;44.782;10.356;2023-11-22T09:53:11;10.50;99.90
39983;DHT22;25670;44.782;10.356;2023-11-22T09:55:41;10.50;99.90
39983;DHT22;25670;44.782;10.356;2023-11-22T09:58:11;10.60;99.90
39983;DHT22;25670;44.782;10.356;2023-11-22T10:00:40;10.70;99.90
39983;DHT22;25670;44.782;10.356;2023-11-22T10:03:07;10.70;99.90
39983;DHT22;25670;44.782;10.356;2023-11-22T10:05:33;10.80;99.90
39983;DHT22;25670;44.782;10.356;2023-11-22T10:08:00;10.80;99.90
39983;DHT22;25670;44.782;10.356;2023-11-22T10:10:30;10.90;99.90
39983;DHT22;25670;44.782;10.356;2023-11-22T10:12:58;11.00;99.90
39983;DHT22;25670;44.782;10.356;2023-11-22T10:15:27;11.10;99.90
39983;DHT22;25670;44.782;10.356;2023-11-22T10:17:55;11.20;99.90
39983;DHT22;25670;44.782;10.356;2023-11-22T10:20:44;11.30;99.90
39983;DHT22;25670;44.782;10.356;2023-11-22T10:23:14;11.40;99.90
39983;DHT22;25670;44.782;10.356;2023-11-22T10:25:51;11.50;99.90
39983;DHT22;25670;44.782;10.356;2023-11-22T10:28:22;11.50;99.90
39983;DHT22;25670;44.782;10.356;2023-11-22T10:30:50;11.50;99.90
39983;DHT22;25670;44.782;10.356;2023-11-22T10:33:18;11.60;99.90
39983;DHT22;25670;44.782;10.356;2023-11-22T10:35:50;11.60;99.90
39983;DHT22;25670;44.782;10.356;2023-11-22T10:38:17;11.80;99.90
39983;DHT22;25670;44.782;10.356;2023-11-22T10:40:44;11.90;99.90
39983;DHT22;25670;44.782;10.356;2023-11-22T10:43:12;12.00;99.90
39983;DHT22;25670;44.782;10.356;2023-11-22T10:45:38;12.00;99.90
39983;DHT22;25670;44.782;10.356;2023-11-22T10:48:05;12.10;99.90
39983;DHT22;25670;44.782;10.356;2023-11-22T10:50:34;12.20;99.90
39983;DHT22;25670;44.782;10.356;2023-11-22T10:53:07;12.20;99.90
39983;DHT22;25670;44.782;10.356;2023-11-22T10:55:33;12.30;99.90
39983;DHT22;25670;44.782;10.356;2023-11-22T10:58:03;12.40;99.90
39983;DHT22;25670;44.782;10.356;2023-11-22T11:00:34;12.40;99.90
39983;DHT22;25670;44.782;10.356;2023-11-22T11:03:13;12.40;99.90
39983;DHT22;25670;44.782;10.356;2023-11-22T11:05:54;12.40;99.90
39983;DHT22;25670;44.782;10.356;2023-11-22T11:08:25;12.60;99.90
39983;DHT22;25670;44.782;10.356;2023-11-22T11:10:53;12.60;99.90
39983;DHT22;25670;44.782;10.356;2023-11-22T11:13:22;12.60;99.90
39983;DHT22;25670;44.782;10.356;2023-11-22T11:15:49;12.60;99.90
39983;DHT22;25670;44.782;10.356;2023-11-22T11:18:18;12.70;99.90
39983;DHT22;25670;44.782;10.356;2023-11-22T11:20:45;12.80;99.90
39983;DHT22;25670;44.782;10.356;2023-11-22T11:23:26;12.90;99.90
39983;DHT22;25670;44.782;10.356;2023-11-22T11:25:58;13.00;99.90
39983;DHT22;25670;44.782;10.356;2023-11-22T11:28:25;12.80;99.90
39983;DHT22;25670;44.782;10.356;2023-11-22T11:30:53;12.80;99.90
39983;DHT22;25670;44.782;10.356;2023-11-22T11:33:27;12.90;99.90
39983;DHT22;25670;44.782;10.356;2023-11-22T11:35:56;13.10;99.90
39983;DHT22;25670;44.782;10.356;2023-11-22T11:38:30;13.20;99.90
39983;DHT22;25670;44.782;10.356;2023-11-22T11:41:09;13.20;99.90
39983;DHT22;25670;44.782;10.356;2023-11-22T11:46:07;13.50;99.90
39983;DHT22;25670;44.782;10.356;2023-11-22T11:48:34;13.50;99.90
39983;DHT22;25670;44.782;10.356;2023-11-22T11:51:01;13.50;99.90
39983;DHT22;25670;44.782;10.356;2023-11-22T11:53:28;13.60;99.90
39983;DHT22;25670;44.782;10.356;2023-11-22T11:55:57;13.80;99.90
39983;DHT22;25670;44.782;10.356;2023-11-22T11:58:24;13.90;99.90
39983;DHT22;25670;44.782;10.356;2023-11-22T12:00:55;14.00;99.90
39983;DHT22;25670;44.782;10.356;2023-11-22T12:03:22;14.10;99.90
39983;DHT22;25670;44.782;10.356;2023-11-22T12:05:48;14.20;99.90
39983;DHT22;25670;44.782;10.356;2023-11-22T12:08:15;14.30;99.90
39983;DHT22;25670;44.782;10.356;2023-11-22T12:10:43;14.40;99.90
39983;DHT22;25670;44.782;10.356;2023-11-22T12:13:09;14.50;99.90
39983;DHT22;25670;44.782;10.356;2023-11-22T12:15:36;14.60;99.90
39983;DHT22;25670;44.782;10.356;2023-11-22T12:18:02;14.60;99.90
39983;DHT22;25670;44.782;10.356;2023-11-22T12:20:28;15.10;99.90
39983;DHT22;25670;44.782;10.356;2023-11-22T12:22:58;15.70;99.90
39983;DHT22;25670;44.782;10.356;2023-11-22T12:25:27;16.20;99.90
39983;DHT22;25670;44.782;10.356;2023-11-22T12:27:54;16.80;99.90
39983;DHT22;25670;44.782;10.356;2023-11-22T12:30:31;17.30;99.90
39983;DHT22;25670;44.782;10.356;2023-11-22T12:33:05;18.10;99.90
39983;DHT22;25670;44.782;10.356;2023-11-22T12:35:32;18.70;99.90
39983;DHT22;25670;44.782;10.356;2023-11-22T12:38:03;19.20;99.90
39983;DHT22;25670;44.782;10.356;2023-11-22T12:40:31;19.90;99.90
39983;DHT22;25670;44.782;10.356;2023-11-22T12:42:59;20.30;99.90
39983;DHT22;25670;44.782;10.356;2023-11-22T12:45:27;20.30;99.90
39983;DHT22;25670;44.782;10.356;2023-11-22T12:47:55;20.70;99.90
39983;DHT22;25670;44.782;10.356;2023-11-22T12:50:36;21.00;99.90
39983;DHT22;25670;44.782;10.356;2023-11-22T12:53:12;21.10;99.90
39983;DHT22;25670;44.782;10.356;2023-11-22T12:55:46;21.20;99.90
39983;DHT22;25670;44.782;10.356;2023-11-22T12:58:15;21.60;99.90
39983;DHT22;25670;44.782;10.356;2023-11-22T13:00:44;21.40;99.90
39983;DHT22;25670;44.782;10.356;2023-11-22T13:03:10;22.20;99.90
39983;DHT22;25670;44.782;10.356;2023-11-22T13:05:38;21.60;98.80
39983;DHT22;25670;44.782;10.356;2023-11-22T13:08:04;21.70;99.00
39983;DHT22;25670;44.782;10.356;2023-11-22T13:10:31;21.40;99.10
39983;DHT22;25670;44.782;10.356;2023-11-22T13:12:58;21.80;99.60
39983;DHT22;25670;44.782;10.356;2023-11-22T13:15:24;22.40;97.40
39983;DHT22;25670;44.782;10.356;2023-11-22T13:17:55;22.50;96.30
39983;DHT22;25670;44.782;10.356;2023-11-22T13:20:23;21.70;96.70
39983;DHT22;25670;44.782;10.356;2023-11-22T13:22:49;20.60;98.00
39983;DHT22;25670;44.782;10.356;2023-11-22T13:25:16;20.30;99.80
39983;DHT22;25670;44.782;10.356;2023-11-22T13:27:48;20.50;99.90
39983;DHT22;25670;44.782;10.356;2023-11-22T13:30:18;21.20;99.00
39983;DHT22;25670;44.782;10.356;2023-11-22T13:32:55;21.70;98.10
39983;DHT22;25670;44.782;10.356;2023-11-22T13:35:25;21.80;97.70
39983;DHT22;25670;44.782;10.356;2023-11-22T13:37:56;22.70;96.40
39983;DHT22;25670;44.782;10.356;2023-11-22T13:40:22;23.20;95.30
39983;DHT22;25670;44.782;10.356;2023-11-22T13:42:51;23.80;94.90
39983;DHT22;25670;44.782;10.356;2023-11-22T13:45:19;23.50;94.20
39983;DHT22;25670;44.782;10.356;2023-11-22T13:47:47;22.40;93.60
39983;DHT22;25670;44.782;10.356;2023-11-22T13:50:14;21.90;95.20
39983;DHT22;25670;44.782;10.356;2023-11-22T13:53:02;21.80;95.40
39983;DHT22;25670;44.782;10.356;2023-11-22T13:55:30;22.00;95.10
39983;DHT22;25670;44.782;10.356;2023-11-22T13:57:58;22.40;94.50
39983;DHT22;25670;44.782;10.356;2023-11-22T14:00:26;22.60;94.40
39983;DHT22;25670;44.782;10.356;2023-11-22T14:02:56;22.80;93.90
39983;DHT22;25670;44.782;10.356;2023-11-22T14:05:23;23.20;93.10
39983;DHT22;25670;44.782;10.356;2023-11-22T14:07:49;22.30;93.70
39983;DHT22;25670;44.782;10.356;2023-11-22T14:10:17;22.30;94.60
39983;DHT22;25670;44.782;10.356;2023-11-22T14:12:44;22.60;93.60
39983;DHT22;25670;44.782;10.356;2023-11-22T14:15:12;21.70;94.20
39983;DHT22;25670;44.782;10.356;2023-11-22T14:17:39;21.10;95.40
39983;DHT22;25670;44.782;10.356;2023-11-22T14:20:11;21.50;95.50
39983;DHT22;25670;44.782;10.356;2023-11-22T14:22:38;21.90;94.40
39983;DHT22;25670;44.782;10.356;2023-11-22T14:25:06;22.40;94.60
39983;DHT22;25670;44.782;10.356;2023-11-22T14:27:40;23.00;93.00
39983;DHT22;25670;44.782;10.356;2023-11-22T14:30:07;22.50;93.20
39983;DHT22;25670;44.782;10.356;2023-11-22T14:32:34;22.50;93.40
39983;DHT22;25670;44.782;10.356;2023-11-22T14:35:04;22.40;93.10
39983;DHT22;25670;44.782;10.356;2023-11-22T14:37:31;21.40;94.50
39983;DHT22;25670;44.782;10.356;2023-11-22T14:39:57;21.80;94.80
39983;DHT22;25670;44.782;10.356;2023-11-22T14:42:24;21.30;95.20
39983;DHT22;25670;44.782;10.356;2023-11-22T14:44:51;22.10;94.30
39983;DHT22;25670;44.782;10.356;2023-11-22T14:47:18;21.90;94.40
39983;DHT22;25670;44.782;10.356;2023-11-22T14:49:52;22.00;94.20
39983;DHT22;25670;44.782;10.356;2023-11-22T14:52:20;22.00;93.60
39983;DHT22;25670;44.782;10.356;2023-11-22T14:54:47;21.60;94.20
39983;DHT22;25670;44.782;10.356;2023-11-22T14:57:14;21.30;94.50
39983;DHT22;25670;44.782;10.356;2023-11-22T14:59:43;21.30;94.90
39983;DHT22;25670;44.782;10.356;2023-11-22T15:02:10;21.00;95.90
39983;DHT22;25670;44.782;10.356;2023-11-22T15:04:38;22.40;95.90
39983;DHT22;25670;44.782;10.356;2023-11-22T15:07:04;20.70;96.00
39983;DHT22;25670;44.782;10.356;2023-11-22T15:09:34;19.30;98.40
39983;DHT22;25670;44.782;10.356;2023-11-22T15:12:00;18.90;99.90
39983;DHT22;25670;44.782;10.356;2023-11-22T15:14:30;18.60;99.90
39983;DHT22;25670;44.782;10.356;2023-11-22T15:16:57;18.60;99.90
39983;DHT22;25670;44.782;10.356;2023-11-22T15:19:23;18.40;99.90
39983;DHT22;25670;44.782;10.356;2023-11-22T15:21:53;18.30;99.90
39983;DHT22;25670;44.782;10.356;2023-11-22T15:24:20;18.10;99.90
39983;DHT22;25670;44.782;10.356;2023-11-22T15:26:46;17.80;99.90
39983;DHT22;25670;44.782;10.356;2023-11-22T15:29:12;17.40;99.90
39983;DHT22;25670;44.782;10.356;2023-11-22T15:31:42;17.00;99.90
39983;DHT22;25670;44.782;10.356;2023-11-22T15:34:09;16.40;99.90